sensor_id;sensor_type;location;lat;lon;timestamp;temperature;humidity
14741;DHT22;7462;53.530;9.414;2023-03-01T00:01:02;1.80;99.90
14741;DHT22;7462;53.530;9.414;2023-03-01T00:03:32;1.60;99.90
14741;DHT22;7462;53.530;9.414;2023-03-01T00:06:00;1.50;99.90
14741;DHT22;7462;53.530;9.414;2023-03-01T00:08:28;1.30;99.90
14741;DHT22;7462;53.530;9.414;2023-03-01T00:11:01;1.30;99.90
14741;DHT22;7462;53.530;9.414;2023-03-01T00:13:29;1.40;99.90
14741;DHT22;7462;53.530;9.414;2023-03-01T00:15:57;1.50;99.90
14741;DHT22;7462;53.530;9.414;2023-03-01T00:18:25;1.50;99.90
14741;DHT22;7462;53.530;9.414;2023-03-01T00:20:55;1.70;99.90
14741;DHT22;7462;53.530;9.414;2023-03-01T00:23:24;1.80;99.90
14741;DHT22;7462;53.530;9.414;2023-03-01T00:25:52;1.60;99.90
14741;DHT22;7462;53.530;9.414;2023-03-01T00:28:20;1.40;99.90
14741;DHT22;7462;53.530;9.414;2023-03-01T00:30:49;1.80;99.90
14741;DHT22;7462;53.530;9.414;2023-03-01T00:33:17;1.50;99.90
14741;DHT22;7462;53.530;9.414;2023-03-01T00:35:45;1.50;99.90
14741;DHT22;7462;53.530;9.414;2023-03-01T00:38:15;1.30;99.90
14741;DHT22;7462;53.530;9.414;2023-03-01T00:40:43;1.40;99.90
14741;DHT22;7462;53.530;9.414;2023-03-01T00:43:11;1.20;99.90
14741;DHT22;7462;53.530;9.414;2023-03-01T00:45:39;1.30;99.90
14741;DHT22;7462;53.530;9.414;2023-03-01T00:48:07;1.40;99.90
14741;DHT22;7462;53.530;9.414;2023-03-01T00:50:35;1.40;99.90
14741;DHT22;7462;53.530;9.414;2023-03-01T00:53:03;1.60;99.90
14741;DHT22;7462;53.530;9.414;2023-03-01T00:55:33;1.50;99.90
14741;DHT22;7462;53.530;9.414;2023-03-01T00:58:05;1.60;99.90
14741;DHT22;7462;53.530;9.414;2023-03-01T01:00:33;1.80;99.90
14741;DHT22;7462;53.530;9.414;2023-03-01T01:03:01;1.70;99.90
14741;DHT22;7462;53.530;9.414;2023-03-01T01:05:29;1.50;99.90
14741;DHT22;7462;53.530;9.414;2023-03-01T01:07:58;1.70;99.90
14741;DHT22;7462;53.530;9.414;2023-03-01T01:10:26;1.60;99.90
14741;DHT22;7462;53.530;9.414;2023-03-01T01:12:55;1.60;99.90
14741;DHT22;7462;53.530;9.414;2023-03-01T01:15:23;1.70;99.90
14741;DHT22;7462;53.530;9.414;2023-03-01T01:17:51;1.70;99.90
14741;DHT22;7462;53.530;9.414;2023-03-01T01:20:19;1.60;99.90
14741;DHT22;7462;53.530;9.414;2023-03-01T01:22:47;1.70;99.90
14741;DHT22;7462;53.530;9.414;2023-03-01T01:25:16;1.70;99.90
14741;DHT22;7462;53.530;9.414;2023-03-01T01:27:44;1.70;99.90
14741;DHT22;7462;53.530;9.414;2023-03-01T01:30:13;1.50;99.90
14741;DHT22;7462;53.530;9.414;2023-03-01T01:32:41;1.40;99.90
14741;DHT22;7462;53.530;9.414;2023-03-01T01:35:09;1.60;99.90
14741;DHT22;7462;53.530;9.414;2023-03-01T01:37:38;1.60;99.90
14741;DHT22;7462;53.530;9.414;2023-03-01T01:40:06;1.50;99.90
14741;DHT22;7462;53.530;9.414;2023-03-01T01:42:35;1.40;99.90
14741;DHT22;7462;53.530;9.414;2023-03-01T01:45:28;1.50;99.90
14741;DHT22;7462;53.530;9.414;2023-03-01T01:47:58;1.60;99.90
14741;DHT22;7462;53.530;9.414;2023-03-01T01:50:27;1.30;99.90
14741;DHT22;7462;53.530;9.414;2023-03-01T01:53:08;1.10;99.90
14741;DHT22;7462;53.530;9.414;2023-03-01T01:55:41;0.90;99.90
14741;DHT22;7462;53.530;9.414;2023-03-01T01:58:11;1.20;99.90
14741;DHT22;7462;53.530;9.414;2023-03-01T02:00:42;1.00;99.90
14741;DHT22;7462;53.530;9.414;2023-03-01T02:03:13;0.80;99.90
14741;DHT22;7462;53.530;9.414;2023-03-01T02:05:47;0.90;99.90
14741;DHT22;7462;53.530;9.414;2023-03-01T02:08:25;0.90;99.90
14741;DHT22;7462;53.530;9.414;2023-03-01T02:10:57;1.00;99.90
14741;DHT22;7462;53.530;9.414;2023-03-01T02:13:26;1.10;99.90
14741;DHT22;7462;53.530;9.414;2023-03-01T02:15:56;1.10;99.90
14741;DHT22;7462;53.530;9.414;2023-03-01T02:18:24;1.30;99.90
14741;DHT22;7462;53.530;9.414;2023-03-01T02:21:05;1.30;99.90
14741;DHT22;7462;53.530;9.414;2023-03-01T02:23:36;1.40;99.90
14741;DHT22;7462;53.530;9.414;2023-03-01T02:26:09;1.40;99.90
14741;DHT22;7462;53.530;9.414;2023-03-01T02:28:43;1.40;99.90
14741;DHT22;7462;53.530;9.414;2023-03-01T02:31:16;1.20;99.90
14741;DHT22;7462;53.530;9.414;2023-03-01T02:34:03;1.30;99.90
14741;DHT22;7462;53.530;9.414;2023-03-01T02:36:36;1.00;99.90
14741;DHT22;7462;53.530;9.414;2023-03-01T02:39:07;1.00;99.90
14741;DHT22;7462;53.530;9.414;2023-03-01T02:41:43;1.00;99.90
14741;DHT22;7462;53.530;9.414;2023-03-01T02:44:13;1.30;99.90
14741;DHT22;7462;53.530;9.414;2023-03-01T02:46:43;1.10;99.90
14741;DHT22;7462;53.530;9.414;2023-03-01T02:49:22;1.20;99.90
14741;DHT22;7462;53.530;9.414;2023-03-01T02:54:52;1.30;99.90
14741;DHT22;7462;53.530;9.414;2023-03-01T02:57:23;1.40;99.90
14741;DHT22;7462;53.530;9.414;2023-03-01T02:59:57;1.50;99.90
14741;DHT22;7462;53.530;9.414;2023-03-01T03:02:29;1.50;99.90
14741;DHT22;7462;53.530;9.414;2023-03-01T03:05:18;1.30;99.90
14741;DHT22;7462;53.530;9.414;2023-03-01T03:07:49;1.20;99.90
14741;DHT22;7462;53.530;9.414;2023-03-01T03:10:21;1.20;99.90
14741;DHT22;7462;53.530;9.414;2023-03-01T03:12:50;1.20;99.90
14741;DHT22;7462;53.530;9.414;2023-03-01T03:15:21;1.40;99.90
14741;DHT22;7462;53.530;9.414;2023-03-01T03:17:50;1.30;99.90
14741;DHT22;7462;53.530;9.414;2023-03-01T03:20:21;1.30;99.90
14741;DHT22;7462;53.530;9.414;2023-03-01T03:22:50;0.90;99.90
14741;DHT22;7462;53.530;9.414;2023-03-01T03:25:20;0.70;99.90
14741;DHT22;7462;53.530;9.414;2023-03-01T03:27:51;0.50;99.90
14741;DHT22;7462;53.530;9.414;2023-03-01T03:30:26;0.40;99.90
14741;DHT22;7462;53.530;9.414;2023-03-01T03:32:55;0.70;99.90
14741;DHT22;7462;53.530;9.414;2023-03-01T03:35:25;0.80;99.90
14741;DHT22;7462;53.530;9.414;2023-03-01T03:37:56;1.00;99.90
14741;DHT22;7462;53.530;9.414;2023-03-01T03:40:33;1.20;99.90
14741;DHT22;7462;53.530;9.414;2023-03-01T03:43:02;0.90;99.90
14741;DHT22;7462;53.530;9.414;2023-03-01T03:45:32;1.00;99.90
14741;DHT22;7462;53.530;9.414;2023-03-01T03:48:01;1.10;99.90
14741;DHT22;7462;53.530;9.414;2023-03-01T03:50:29;0.90;99.90
14741;DHT22;7462;53.530;9.414;2023-03-01T03:52:57;1.00;99.90
14741;DHT22;7462;53.530;9.414;2023-03-01T03:55:25;1.10;99.90
14741;DHT22;7462;53.530;9.414;2023-03-01T03:57:58;1.30;99.90
14741;DHT22;7462;53.530;9.414;2023-03-01T04:00:29;1.40;99.90
14741;DHT22;7462;53.530;9.414;2023-03-01T04:02:58;1.00;99.90
14741;DHT22;7462;53.530;9.414;2023-03-01T04:05:27;0.90;99.90
14741;DHT22;7462;53.530;9.414;2023-03-01T04:07:56;0.60;99.90
14741;DHT22;7462;53.530;9.414;2023-03-01T04:10:36;0.90;99.90
14741;DHT22;7462;53.530;9.414;2023-03-01T04:13:05;0.80;99.90
14741;DHT22;7462;53.530;9.414;2023-03-01T04:15:34;0.60;99.90
14741;DHT22;7462;53.530;9.414;2023-03-01T04:18:04;0.40;99.90
14741;DHT22;7462;53.530;9.414;2023-03-01T04:20:34;0.20;99.90
14741;DHT22;7462;53.530;9.414;2023-03-01T04:23:05;0.30;99.90
14741;DHT22;7462;53.530;9.414;2023-03-01T04:25:41;0.30;99.90
14741;DHT22;7462;53.530;9.414;2023-03-01T04:28:09;0.70;99.90
14741;DHT22;7462;53.530;9.414;2023-03-01T04:30:38;0.80;99.90
14741;DHT22;7462;53.530;9.414;2023-03-01T04:33:10;0.80;99.90
14741;DHT22;7462;53.530;9.414;2023-03-01T04:35:38;0.70;99.90
14741;DHT22;7462;53.530;9.414;2023-03-01T04:38:07;0.50;99.90
14741;DHT22;7462;53.530;9.414;2023-03-01T04:40:36;0.50;99.90
14741;DHT22;7462;53.530;9.414;2023-03-01T04:43:05;0.60;99.90
14741;DHT22;7462;53.530;9.414;2023-03-01T04:45:33;1.00;99.90
14741;DHT22;7462;53.530;9.414;2023-03-01T04:48:03;1.00;99.90
14741;DHT22;7462;53.530;9.414;2023-03-01T04:50:32;0.90;99.90
14741;DHT22;7462;53.530;9.414;2023-03-01T04:53:01;0.70;99.90
14741;DHT22;7462;53.530;9.414;2023-03-01T04:55:29;0.50;99.90
14741;DHT22;7462;53.530;9.414;2023-03-01T04:57:58;0.70;99.90
14741;DHT22;7462;53.530;9.414;2023-03-01T05:00:26;0.80;99.90
14741;DHT22;7462;53.530;9.414;2023-03-01T05:02:56;0.90;99.90
14741;DHT22;7462;53.530;9.414;2023-03-01T05:05:26;0.80;99.90
14741;DHT22;7462;53.530;9.414;2023-03-01T05:07:58;1.00;99.90
14741;DHT22;7462;53.530;9.414;2023-03-01T05:10:28;0.60;99.90
14741;DHT22;7462;53.530;9.414;2023-03-01T05:12:57;0.40;99.90
14741;DHT22;7462;53.530;9.414;2023-03-01T05:15:26;0.30;99.90
14741;DHT22;7462;53.530;9.414;2023-03-01T05:17:58;0.70;99.90
14741;DHT22;7462;53.530;9.414;2023-03-01T05:20:27;0.60;99.90
14741;DHT22;7462;53.530;9.414;2023-03-01T05:22:58;0.60;99.90
14741;DHT22;7462;53.530;9.414;2023-03-01T05:25:27;0.90;99.90
14741;DHT22;7462;53.530;9.414;2023-03-01T05:28:11;1.10;99.90
14741;DHT22;7462;53.530;9.414;2023-03-01T05:30:39;1.30;99.90
14741;DHT22;7462;53.530;9.414;2023-03-01T05:33:08;1.30;99.90
14741;DHT22;7462;53.530;9.414;2023-03-01T05:35:40;1.30;99.90
14741;DHT22;7462;53.530;9.414;2023-03-01T05:38:11;1.50;99.90
14741;DHT22;7462;53.530;9.414;2023-03-01T05:40:40;1.40;99.90
14741;DHT22;7462;53.530;9.414;2023-03-01T05:43:10;1.50;99.90
14741;DHT22;7462;53.530;9.414;2023-03-01T05:45:40;1.80;99.90
14741;DHT22;7462;53.530;9.414;2023-03-01T05:48:09;1.60;99.90
14741;DHT22;7462;53.530;9.414;2023-03-01T05:50:39;1.50;99.90
14741;DHT22;7462;53.530;9.414;2023-03-01T05:53:11;1.60;99.90
14741;DHT22;7462;53.530;9.414;2023-03-01T05:55:40;1.10;99.90
14741;DHT22;7462;53.530;9.414;2023-03-01T05:58:11;0.80;99.90
14741;DHT22;7462;53.530;9.414;2023-03-01T06:00:41;0.90;99.90
14741;DHT22;7462;53.530;9.414;2023-03-01T06:03:11;1.10;99.90
14741;DHT22;7462;53.530;9.414;2023-03-01T06:05:40;1.70;99.90
14741;DHT22;7462;53.530;9.414;2023-03-01T06:08:10;1.30;99.90
14741;DHT22;7462;53.530;9.414;2023-03-01T06:10:40;0.90;99.90
14741;DHT22;7462;53.530;9.414;2023-03-01T06:13:08;0.80;99.90
14741;DHT22;7462;53.530;9.414;2023-03-01T06:15:36;0.60;99.90
14741;DHT22;7462;53.530;9.414;2023-03-01T06:18:04;0.50;99.90
14741;DHT22;7462;53.530;9.414;2023-03-01T06:20:33;0.50;99.90
14741;DHT22;7462;53.530;9.414;2023-03-01T06:23:01;0.60;99.90
14741;DHT22;7462;53.530;9.414;2023-03-01T06:25:29;0.80;99.90
14741;DHT22;7462;53.530;9.414;2023-03-01T06:27:58;0.90;99.90
14741;DHT22;7462;53.530;9.414;2023-03-01T06:30:26;0.70;99.90
14741;DHT22;7462;53.530;9.414;2023-03-01T06:32:56;0.80;99.90
14741;DHT22;7462;53.530;9.414;2023-03-01T06:35:27;0.70;99.90
14741;DHT22;7462;53.530;9.414;2023-03-01T06:37:58;0.60;99.90
14741;DHT22;7462;53.530;9.414;2023-03-01T06:40:27;0.70;99.90
14741;DHT22;7462;53.530;9.414;2023-03-01T06:42:55;0.60;99.90
14741;DHT22;7462;53.530;9.414;2023-03-01T06:45:25;0.70;99.90
14741;DHT22;7462;53.530;9.414;2023-03-01T06:48:01;0.60;99.90
14741;DHT22;7462;53.530;9.414;2023-03-01T06:50:29;0.70;99.90
14741;DHT22;7462;53.530;9.414;2023-03-01T06:52:58;0.50;99.90
14741;DHT22;7462;53.530;9.414;2023-03-01T06:55:26;0.50;99.90
14741;DHT22;7462;53.530;9.414;2023-03-01T06:57:54;0.60;99.90
14741;DHT22;7462;53.530;9.414;2023-03-01T07:00:25;0.80;99.90
14741;DHT22;7462;53.530;9.414;2023-03-01T07:02:53;0.80;99.90
14741;DHT22;7462;53.530;9.414;2023-03-01T07:05:22;0.90;99.90
14741;DHT22;7462;53.530;9.414;2023-03-01T07:07:50;0.80;99.90
14741;DHT22;7462;53.530;9.414;2023-03-01T07:10:18;0.80;99.90
14741;DHT22;7462;53.530;9.414;2023-03-01T07:12:46;0.80;99.90
14741;DHT22;7462;53.530;9.414;2023-03-01T07:15:14;0.80;99.90
14741;DHT22;7462;53.530;9.414;2023-03-01T07:17:44;0.90;99.90
14741;DHT22;7462;53.530;9.414;2023-03-01T07:20:14;1.00;99.90
14741;DHT22;7462;53.530;9.414;2023-03-01T07:22:42;0.90;99.90
14741;DHT22;7462;53.530;9.414;2023-03-01T07:25:11;0.80;99.90
14741;DHT22;7462;53.530;9.414;2023-03-01T07:27:39;0.80;99.90
14741;DHT22;7462;53.530;9.414;2023-03-01T07:30:08;0.80;99.90
14741;DHT22;7462;53.530;9.414;2023-03-01T07:32:36;0.70;99.90
14741;DHT22;7462;53.530;9.414;2023-03-01T07:35:07;0.80;99.90
14741;DHT22;7462;53.530;9.414;2023-03-01T07:37:35;0.80;99.90
14741;DHT22;7462;53.530;9.414;2023-03-01T07:40:04;0.80;99.90
14741;DHT22;7462;53.530;9.414;2023-03-01T07:42:32;0.90;99.90
14741;DHT22;7462;53.530;9.414;2023-03-01T07:45:00;0.90;99.90
14741;DHT22;7462;53.530;9.414;2023-03-01T07:47:28;1.20;99.90
14741;DHT22;7462;53.530;9.414;2023-03-01T07:49:56;1.20;99.90
14741;DHT22;7462;53.530;9.414;2023-03-01T07:52:26;1.30;99.90
14741;DHT22;7462;53.530;9.414;2023-03-01T07:54:54;1.30;99.90
14741;DHT22;7462;53.530;9.414;2023-03-01T07:57:22;1.40;99.90
14741;DHT22;7462;53.530;9.414;2023-03-01T07:59:50;1.50;99.90
14741;DHT22;7462;53.530;9.414;2023-03-01T08:02:18;1.50;99.90
14741;DHT22;7462;53.530;9.414;2023-03-01T08:04:46;1.50;99.90
14741;DHT22;7462;53.530;9.414;2023-03-01T08:07:14;1.60;99.90
14741;DHT22;7462;53.530;9.414;2023-03-01T08:09:44;1.60;99.90
14741;DHT22;7462;53.530;9.414;2023-03-01T08:12:12;1.70;99.90
14741;DHT22;7462;53.530;9.414;2023-03-01T08:14:40;1.70;99.90
14741;DHT22;7462;53.530;9.414;2023-03-01T08:17:08;1.90;99.90
14741;DHT22;7462;53.530;9.414;2023-03-01T08:19:36;2.10;99.90
14741;DHT22;7462;53.530;9.414;2023-03-01T08:22:04;2.00;99.90
14741;DHT22;7462;53.530;9.414;2023-03-01T08:24:32;2.10;99.90
14741;DHT22;7462;53.530;9.414;2023-03-01T08:27:02;2.30;99.90
14741;DHT22;7462;53.530;9.414;2023-03-01T08:29:30;2.20;99.90
14741;DHT22;7462;53.530;9.414;2023-03-01T08:31:59;2.40;99.90
14741;DHT22;7462;53.530;9.414;2023-03-01T08:34:27;2.40;99.90
14741;DHT22;7462;53.530;9.414;2023-03-01T08:36:55;2.40;99.90
14741;DHT22;7462;53.530;9.414;2023-03-01T08:39:23;2.30;99.90
14741;DHT22;7462;53.530;9.414;2023-03-01T08:41:52;2.40;99.90
14741;DHT22;7462;53.530;9.414;2023-03-01T08:44:21;2.40;99.90
14741;DHT22;7462;53.530;9.414;2023-03-01T08:46:50;2.40;99.90
14741;DHT22;7462;53.530;9.414;2023-03-01T08:49:20;2.50;99.90
14741;DHT22;7462;53.530;9.414;2023-03-01T08:51:48;2.50;99.90
14741;DHT22;7462;53.530;9.414;2023-03-01T08:54:18;2.50;99.90
14741;DHT22;7462;53.530;9.414;2023-03-01T08:56:47;2.60;99.90
14741;DHT22;7462;53.530;9.414;2023-03-01T08:59:16;2.60;99.90
14741;DHT22;7462;53.530;9.414;2023-03-01T09:01:46;2.70;99.90
14741;DHT22;7462;53.530;9.414;2023-03-01T09:04:14;2.80;99.90
14741;DHT22;7462;53.530;9.414;2023-03-01T09:06:43;2.90;99.90
14741;DHT22;7462;53.530;9.414;2023-03-01T09:09:13;2.90;99.90
14741;DHT22;7462;53.530;9.414;2023-03-01T09:11:43;2.90;99.90
14741;DHT22;7462;53.530;9.414;2023-03-01T09:14:12;3.00;99.90
14741;DHT22;7462;53.530;9.414;2023-03-01T09:16:41;3.20;99.90
14741;DHT22;7462;53.530;9.414;2023-03-01T09:19:10;3.50;99.90
14741;DHT22;7462;53.530;9.414;2023-03-01T09:21:39;3.50;99.90
14741;DHT22;7462;53.530;9.414;2023-03-01T09:24:12;3.50;99.90
14741;DHT22;7462;53.530;9.414;2023-03-01T09:26:41;3.60;99.90
14741;DHT22;7462;53.530;9.414;2023-03-01T09:29:09;3.50;99.90
14741;DHT22;7462;53.530;9.414;2023-03-01T09:31:41;3.50;99.90
14741;DHT22;7462;53.530;9.414;2023-03-01T09:34:11;3.50;99.90
14741;DHT22;7462;53.530;9.414;2023-03-01T09:36:42;3.50;99.90
14741;DHT22;7462;53.530;9.414;2023-03-01T09:39:10;3.50;99.90
14741;DHT22;7462;53.530;9.414;2023-03-01T09:41:50;3.60;99.90
14741;DHT22;7462;53.530;9.414;2023-03-01T09:44:29;3.80;99.90
14741;DHT22;7462;53.530;9.414;2023-03-01T09:46:59;3.80;99.90
14741;DHT22;7462;53.530;9.414;2023-03-01T09:49:31;3.90;99.90
14741;DHT22;7462;53.530;9.414;2023-03-01T09:52:06;3.90;99.90
14741;DHT22;7462;53.530;9.414;2023-03-01T09:54:37;3.90;99.90
14741;DHT22;7462;53.530;9.414;2023-03-01T09:57:13;3.90;99.90
14741;DHT22;7462;53.530;9.414;2023-03-01T09:59:56;3.90;99.90
14741;DHT22;7462;53.530;9.414;2023-03-01T10:02:29;4.00;99.90
14741;DHT22;7462;53.530;9.414;2023-03-01T10:05:11;4.00;99.90
14741;DHT22;7462;53.530;9.414;2023-03-01T10:07:48;4.00;99.90
14741;DHT22;7462;53.530;9.414;2023-03-01T10:10:29;4.00;99.90
14741;DHT22;7462;53.530;9.414;2023-03-01T10:13:00;4.00;99.90
14741;DHT22;7462;53.530;9.414;2023-03-01T10:15:36;4.00;99.90
14741;DHT22;7462;53.530;9.414;2023-03-01T10:18:10;4.00;99.90
14741;DHT22;7462;53.530;9.414;2023-03-01T10:20:46;3.90;99.90
14741;DHT22;7462;53.530;9.414;2023-03-01T10:23:16;3.70;99.90
14741;DHT22;7462;53.530;9.414;2023-03-01T10:25:51;3.70;99.90
14741;DHT22;7462;53.530;9.414;2023-03-01T10:28:28;3.70;99.90
14741;DHT22;7462;53.530;9.414;2023-03-01T10:30:59;3.70;99.90
14741;DHT22;7462;53.530;9.414;2023-03-01T10:33:29;3.60;99.90
14741;DHT22;7462;53.530;9.414;2023-03-01T10:36:00;3.70;99.90
14741;DHT22;7462;53.530;9.414;2023-03-01T10:38:31;3.70;99.90
14741;DHT22;7462;53.530;9.414;2023-03-01T10:41:04;3.80;99.90
14741;DHT22;7462;53.530;9.414;2023-03-01T10:43:44;4.00;99.90
14741;DHT22;7462;53.530;9.414;2023-03-01T10:46:23;4.10;99.90
14741;DHT22;7462;53.530;9.414;2023-03-01T10:49:06;4.10;99.90
14741;DHT22;7462;53.530;9.414;2023-03-01T10:51:38;4.00;99.90
14741;DHT22;7462;53.530;9.414;2023-03-01T10:54:16;4.10;99.90
14741;DHT22;7462;53.530;9.414;2023-03-01T10:56:50;4.10;99.90
14741;DHT22;7462;53.530;9.414;2023-03-01T10:59:26;4.10;99.90
14741;DHT22;7462;53.530;9.414;2023-03-01T11:02:04;4.10;99.90
14741;DHT22;7462;53.530;9.414;2023-03-01T11:04:59;4.30;99.90
14741;DHT22;7462;53.530;9.414;2023-03-01T11:07:29;4.40;99.90
14741;DHT22;7462;53.530;9.414;2023-03-01T11:09:57;4.50;99.90
14741;DHT22;7462;53.530;9.414;2023-03-01T11:12:26;4.50;99.90
14741;DHT22;7462;53.530;9.414;2023-03-01T11:14:57;4.40;99.90
14741;DHT22;7462;53.530;9.414;2023-03-01T11:17:28;4.40;99.90
14741;DHT22;7462;53.530;9.414;2023-03-01T11:20:15;4.50;99.90
14741;DHT22;7462;53.530;9.414;2023-03-01T11:22:51;4.50;99.90
14741;DHT22;7462;53.530;9.414;2023-03-01T11:25:24;4.50;99.90
14741;DHT22;7462;53.530;9.414;2023-03-01T11:27:53;4.60;99.90
14741;DHT22;7462;53.530;9.414;2023-03-01T11:30:26;4.70;99.90
14741;DHT22;7462;53.530;9.414;2023-03-01T11:33:03;4.70;99.90
14741;DHT22;7462;53.530;9.414;2023-03-01T11:35:35;4.60;99.90
14741;DHT22;7462;53.530;9.414;2023-03-01T11:38:15;4.60;99.90
14741;DHT22;7462;53.530;9.414;2023-03-01T11:40:47;4.60;99.90
14741;DHT22;7462;53.530;9.414;2023-03-01T11:43:26;4.50;99.90
14741;DHT22;7462;53.530;9.414;2023-03-01T11:49:20;4.70;99.90
14741;DHT22;7462;53.530;9.414;2023-03-01T11:51:57;4.90;99.90
14741;DHT22;7462;53.530;9.414;2023-03-01T11:54:41;5.00;99.90
14741;DHT22;7462;53.530;9.414;2023-03-01T11:57:18;5.10;99.90
14741;DHT22;7462;53.530;9.414;2023-03-01T12:00:13;5.20;99.90
14741;DHT22;7462;53.530;9.414;2023-03-01T12:06:09;5.20;99.90
14741;DHT22;7462;53.530;9.414;2023-03-01T12:08:42;5.20;99.90
14741;DHT22;7462;53.530;9.414;2023-03-01T12:11:23;5.30;99.90
14741;DHT22;7462;53.530;9.414;2023-03-01T12:14:21;5.10;99.90
14741;DHT22;7462;53.530;9.414;2023-03-01T12:17:29;5.20;99.90
14741;DHT22;7462;53.530;9.414;2023-03-01T12:20:14;5.20;99.90
14741;DHT22;7462;53.530;9.414;2023-03-01T12:22:54;5.30;99.90
14741;DHT22;7462;53.530;9.414;2023-03-01T12:25:47;5.50;99.90
14741;DHT22;7462;53.530;9.414;2023-03-01T12:28:29;5.50;99.90
14741;DHT22;7462;53.530;9.414;2023-03-01T12:31:13;5.40;99.90
14741;DHT22;7462;53.530;9.414;2023-03-01T12:33:50;5.40;99.90
14741;DHT22;7462;53.530;9.414;2023-03-01T12:36:35;5.50;99.90
14741;DHT22;7462;53.530;9.414;2023-03-01T12:39:19;5.60;99.90
14741;DHT22;7462;53.530;9.414;2023-03-01T12:41:58;5.70;99.90
14741;DHT22;7462;53.530;9.414;2023-03-01T12:44:59;5.70;99.90
14741;DHT22;7462;53.530;9.414;2023-03-01T12:47:42;5.60;99.90
14741;DHT22;7462;53.530;9.414;2023-03-01T12:50:18;5.50;99.90
14741;DHT22;7462;53.530;9.414;2023-03-01T12:52:50;5.40;99.90
14741;DHT22;7462;53.530;9.414;2023-03-01T12:55:26;5.40;99.90
14741;DHT22;7462;53.530;9.414;2023-03-01T12:58:02;5.50;99.90
14741;DHT22;7462;53.530;9.414;2023-03-01T13:00:37;5.50;99.90
14741;DHT22;7462;53.530;9.414;2023-03-01T13:03:15;5.50;99.90
14741;DHT22;7462;53.530;9.414;2023-03-01T13:06:00;5.60;99.90
14741;DHT22;7462;53.530;9.414;2023-03-01T13:08:33;5.60;99.90
14741;DHT22;7462;53.530;9.414;2023-03-01T13:11:06;5.60;99.90
14741;DHT22;7462;53.530;9.414;2023-03-01T13:13:39;5.70;99.90
14741;DHT22;7462;53.530;9.414;2023-03-01T13:19:12;5.80;99.90
14741;DHT22;7462;53.530;9.414;2023-03-01T13:21:42;5.90;99.90
14741;DHT22;7462;53.530;9.414;2023-03-01T13:24:25;6.00;99.90
14741;DHT22;7462;53.530;9.414;2023-03-01T13:27:18;6.30;99.90
14741;DHT22;7462;53.530;9.414;2023-03-01T13:29:51;6.40;99.90
14741;DHT22;7462;53.530;9.414;2023-03-01T13:32:23;6.40;99.90
14741;DHT22;7462;53.530;9.414;2023-03-01T13:38:39;6.40;99.90
14741;DHT22;7462;53.530;9.414;2023-03-01T13:41:13;6.50;99.90
14741;DHT22;7462;53.530;9.414;2023-03-01T13:43:42;6.50;99.90
14741;DHT22;7462;53.530;9.414;2023-03-01T13:46:15;6.60;99.90
14741;DHT22;7462;53.530;9.414;2023-03-01T13:48:50;6.60;99.90
14741;DHT22;7462;53.530;9.414;2023-03-01T13:51:23;6.50;99.90
14741;DHT22;7462;53.530;9.414;2023-03-01T13:53:53;6.50;99.90
14741;DHT22;7462;53.530;9.414;2023-03-01T13:56:25;6.50;99.90
14741;DHT22;7462;53.530;9.414;2023-03-01T13:58:58;6.50;99.90
14741;DHT22;7462;53.530;9.414;2023-03-01T14:01:29;6.50;99.90
14741;DHT22;7462;53.530;9.414;2023-03-01T14:04:00;6.60;99.90
14741;DHT22;7462;53.530;9.414;2023-03-01T14:06:31;6.50;99.90
14741;DHT22;7462;53.530;9.414;2023-03-01T14:09:05;6.50;99.90
14741;DHT22;7462;53.530;9.414;2023-03-01T14:12:12;6.40;99.90
14741;DHT22;7462;53.530;9.414;2023-03-01T14:14:50;6.40;99.90
14741;DHT22;7462;53.530;9.414;2023-03-01T14:17:38;6.40;99.90
14741;DHT22;7462;53.530;9.414;2023-03-01T14:20:14;6.30;99.90
14741;DHT22;7462;53.530;9.414;2023-03-01T14:22:45;6.20;99.90
14741;DHT22;7462;53.530;9.414;2023-03-01T14:25:21;6.20;99.90
14741;DHT22;7462;53.530;9.414;2023-03-01T14:27:56;6.10;99.90
14741;DHT22;7462;53.530;9.414;2023-03-01T14:30:26;6.00;99.90
14741;DHT22;7462;53.530;9.414;2023-03-01T14:32:56;6.00;99.90
14741;DHT22;7462;53.530;9.414;2023-03-01T14:35:27;6.00;99.90
14741;DHT22;7462;53.530;9.414;2023-03-01T14:37:56;6.00;99.90
14741;DHT22;7462;53.530;9.414;2023-03-01T14:40:27;6.00;99.90
14741;DHT22;7462;53.530;9.414;2023-03-01T14:42:56;5.90;99.90
14741;DHT22;7462;53.530;9.414;2023-03-01T14:45:27;5.90;99.90
14741;DHT22;7462;53.530;9.414;2023-03-01T14:48:00;6.00;99.90
14741;DHT22;7462;53.530;9.414;2023-03-01T14:50:31;5.90;99.90
14741;DHT22;7462;53.530;9.414;2023-03-01T14:53:02;5.80;99.90
14741;DHT22;7462;53.530;9.414;2023-03-01T14:55:32;5.80;99.90
14741;DHT22;7462;53.530;9.414;2023-03-01T14:58:03;5.80;99.90
14741;DHT22;7462;53.530;9.414;2023-03-01T15:00:33;5.70;99.90
14741;DHT22;7462;53.530;9.414;2023-03-01T15:03:07;5.70;99.90
14741;DHT22;7462;53.530;9.414;2023-03-01T15:05:42;5.60;99.90
14741;DHT22;7462;53.530;9.414;2023-03-01T15:08:16;5.50;99.90
14741;DHT22;7462;53.530;9.414;2023-03-01T15:10:57;5.50;99.90
14741;DHT22;7462;53.530;9.414;2023-03-01T15:13:28;5.50;99.90
14741;DHT22;7462;53.530;9.414;2023-03-01T15:16:06;5.50;99.90
14741;DHT22;7462;53.530;9.414;2023-03-01T15:18:36;5.50;99.90
14741;DHT22;7462;53.530;9.414;2023-03-01T15:21:15;5.60;99.90
14741;DHT22;7462;53.530;9.414;2023-03-01T15:23:48;5.60;99.90
14741;DHT22;7462;53.530;9.414;2023-03-01T15:26:25;5.60;99.90
14741;DHT22;7462;53.530;9.414;2023-03-01T15:28:55;5.60;99.90
14741;DHT22;7462;53.530;9.414;2023-03-01T15:31:27;5.50;99.90
14741;DHT22;7462;53.530;9.414;2023-03-01T15:34:19;5.40;99.90
14741;DHT22;7462;53.530;9.414;2023-03-01T15:36:51;5.40;99.90
14741;DHT22;7462;53.530;9.414;2023-03-01T15:39:34;5.40;99.90
14741;DHT22;7462;53.530;9.414;2023-03-01T15:42:06;5.40;99.90
14741;DHT22;7462;53.530;9.414;2023-03-01T15:44:36;5.40;99.90
14741;DHT22;7462;53.530;9.414;2023-03-01T15:47:26;5.30;99.90
14741;DHT22;7462;53.530;9.414;2023-03-01T15:49:55;5.20;99.90
14741;DHT22;7462;53.530;9.414;2023-03-01T15:52:28;5.20;99.90
14741;DHT22;7462;53.530;9.414;2023-03-01T15:54:58;5.20;99.90
14741;DHT22;7462;53.530;9.414;2023-03-01T15:57:27;5.10;99.90
14741;DHT22;7462;53.530;9.414;2023-03-01T15:59:55;5.10;99.90
14741;DHT22;7462;53.530;9.414;2023-03-01T16:02:24;5.10;99.90
14741;DHT22;7462;53.530;9.414;2023-03-01T16:04:52;5.10;99.90
14741;DHT22;7462;53.530;9.414;2023-03-01T16:07:23;5.00;99.90
14741;DHT22;7462;53.530;9.414;2023-03-01T16:09:54;4.80;99.90
14741;DHT22;7462;53.530;9.414;2023-03-01T16:12:23;4.80;99.90
14741;DHT22;7462;53.530;9.414;2023-03-01T16:14:51;4.80;99.90
14741;DHT22;7462;53.530;9.414;2023-03-01T16:17:20;4.70;99.90
14741;DHT22;7462;53.530;9.414;2023-03-01T16:19:48;4.70;99.90
14741;DHT22;7462;53.530;9.414;2023-03-01T16:22:16;4.60;99.90
14741;DHT22;7462;53.530;9.414;2023-03-01T16:24:47;4.60;99.90
14741;DHT22;7462;53.530;9.414;2023-03-01T16:27:17;4.50;99.90
14741;DHT22;7462;53.530;9.414;2023-03-01T16:29:47;4.40;99.90
14741;DHT22;7462;53.530;9.414;2023-03-01T16:32:15;4.30;99.90
14741;DHT22;7462;53.530;9.414;2023-03-01T16:34:43;4.30;99.90
14741;DHT22;7462;53.530;9.414;2023-03-01T16:37:11;4.30;99.90
14741;DHT22;7462;53.530;9.414;2023-03-01T16:39:39;4.20;99.90
14741;DHT22;7462;53.530;9.414;2023-03-01T16:42:07;4.10;99.90
14741;DHT22;7462;53.530;9.414;2023-03-01T16:44:37;4.20;99.90
14741;DHT22;7462;53.530;9.414;2023-03-01T16:47:05;4.20;99.90
14741;DHT22;7462;53.530;9.414;2023-03-01T16:49:33;4.10;99.90